This is the latest recevied weather packets stored in our database for station/object KJ4RDP-13. If no packets are shown the sender has not sent any weather packets the latest 10 day(s).
| Time | Temp. | Humidity | Pressure | Rain* | Wind** | Luminosity | Snow |
|---|---|---|---|---|---|---|---|
| 1777383310 | 11.11° C | 99% | 1021.4 hPa | 0.51 mm | - | 63 W/m² | - |
| 1777383007 | 10.56° C | 99% | 1021.1 hPa | 0.51 mm | - | 67 W/m² | - |
| 1777382703 | 10.56° C | 99% | 1020.7 hPa | 0.51 mm | - | 65 W/m² | - |
| 1777382398 | 10.56° C | 99% | 1021.4 hPa | 0.51 mm | - | 49 W/m² | - |
| 1777382094 | 10.56° C | 99% | 1022.2 hPa | 0.25 mm | - | 34 W/m² | - |
| 1777381785 | 10.56° C | 99% | 1023.3 hPa | 0.25 mm | - | 11 W/m² | - |
| 1777381484 | 10.56° C | 99% | 1022.5 hPa | 0.25 mm | - | 23 W/m² | - |
| 1777381181 | 10.56° C | 99% | 1022.9 hPa | 5.33 mm | - | 22 W/m² | - |
| 1777380878 | 10.56° C | 99% | 1023.3 hPa | 5.08 mm | - | 15 W/m² | - |
| 1777380576 | 10.56° C | 99% | 1023.3 hPa | 4.83 mm | - | 15 W/m² | - |
| 1777380271 | 10.56° C | 99% | 1023.3 hPa | 4.57 mm | - | 16 W/m² | - |
| 1777379968 | 10.56° C | 99% | 1023.6 hPa | 4.32 mm | - | 12 W/m² | - |
| 1777379664 | 10.56° C | 99% | 1023.3 hPa | 3.81 mm | - | 8 W/m² | - |
| 1777379359 | 10.56° C | 99% | 1023.3 hPa | 2.79 mm | - | 3 W/m² | - |
| 1777379055 | 10.56° C | 99% | 1023.3 hPa | 2.29 mm | - | 3 W/m² | - |
| 1777378750 | 10.56° C | 99% | 1023.3 hPa | 1.78 mm | - | 8 W/m² | - |
| 1777378447 | 10.56° C | 99% | 1022.9 hPa | 1.52 mm | - | 12 W/m² | - |
| 1777378143 | 10.56° C | 99% | 1022.9 hPa | 1.02 mm | - | 8 W/m² | - |
| 1777377841 | 10.56° C | 99% | 1022.9 hPa | 0.51 mm | - | 4 W/m² | - |
| 1777377541 | 10.56° C | 99% | 1022.5 hPa | 8.13 mm | - | 2 W/m² | - |
| 1777377236 | 10.56° C | 99% | 1022.9 hPa | 7.11 mm | - | 1 W/m² | - |
| 1777376934 | 10.56° C | 99% | 1022.5 hPa | 6.35 mm | - | 1 W/m² | - |
| 1777376631 | 10.56° C | 99% | 1022.5 hPa | 5.59 mm | - | 0 W/m² | - |
| 1777376328 | 10.56° C | 99% | 1022.9 hPa | 4.83 mm | - | 2 W/m² | - |
| 1777376023 | 10.56° C | 99% | 1022.5 hPa | 4.06 mm | - | 1 W/m² | - |
* Rain latest hour (hover to see other rain measurements)
** Current wind speed in m/s (hover to see current wind gust speed)